createdAt,value
2019-06-27T00:00:32.261Z,2.43
2019-06-27T00:05:25.622Z,3.20
2019-06-27T00:10:18.987Z,3.07
2019-06-27T00:15:12.344Z,3.43
2019-06-27T00:20:05.706Z,2.83
2019-06-27T00:24:59.033Z,3.83
2019-06-27T00:29:52.401Z,3.40
2019-06-27T00:34:45.742Z,3.10
2019-06-27T00:39:39.146Z,2.97
2019-06-27T00:44:32.525Z,2.90
2019-06-27T00:49:26.668Z,2.77
2019-06-27T00:54:19.976Z,2.87
2019-06-27T00:59:13.446Z,2.37
2019-06-27T01:04:06.756Z,3.23
2019-06-27T01:09:00.318Z,3.07
2019-06-27T01:13:53.640Z,3.27
2019-06-27T01:18:47.009Z,2.57
2019-06-27T01:23:40.431Z,2.60
2019-06-27T01:28:33.808Z,3.73
2019-06-27T01:33:27.135Z,2.90
2019-06-27T01:38:20.552Z,3.07
2019-06-27T01:43:13.879Z,3.00
2019-06-27T01:48:07.246Z,2.90
2019-06-27T01:53:00.555Z,2.70
2019-06-27T01:57:54.779Z,2.90
2019-06-27T02:02:48.173Z,2.57
2019-06-27T02:07:41.549Z,2.47
2019-06-27T02:12:34.865Z,2.70
2019-06-27T02:17:28.225Z,3.03
2019-06-27T02:22:21.561Z,2.50
2019-06-27T02:27:15.108Z,3.05
2019-06-27T02:32:08.443Z,2.47
2019-06-27T02:37:01.819Z,2.70
2019-06-27T02:41:55.158Z,3.00
2019-06-27T02:46:48.700Z,2.80
2019-06-27T02:51:42.011Z,3.13
2019-06-27T02:56:35.636Z,3.73
2019-06-27T03:01:28.958Z,2.53
2019-06-27T03:06:22.707Z,2.80
2019-06-27T03:11:16.032Z,2.33
2019-06-27T03:16:09.397Z,2.67
2019-06-27T03:21:03.324Z,2.70
2019-06-27T03:25:56.668Z,2.50
2019-06-27T03:30:50.023Z,3.80
2019-06-27T03:35:43.459Z,2.80
2019-06-27T03:40:36.688Z,2.13
2019-06-27T03:45:30.048Z,3.10
2019-06-27T03:50:23.379Z,3.13
2019-06-27T03:55:16.800Z,2.50
2019-06-27T04:00:10.406Z,2.43
2019-06-27T04:05:04.212Z,2.60
2019-06-27T04:09:59.513Z,2.70
2019-06-27T04:14:53.120Z,2.50
2019-06-27T04:19:46.525Z,2.70
2019-06-27T04:24:39.908Z,2.50
2019-06-27T04:29:34.727Z,3.27
2019-06-27T04:34:27.072Z,2.67
2019-06-27T04:39:20.402Z,2.70
2019-06-27T04:44:13.776Z,2.53
2019-06-27T04:49:12.762Z,3.13
2019-06-27T04:54:00.885Z,2.70
2019-06-27T04:58:54.209Z,2.90
2019-06-27T05:03:47.561Z,2.00
2019-06-27T05:08:40.877Z,2.83
2019-06-27T05:13:35.166Z,2.83
2019-06-27T05:18:28.484Z,2.70
2019-06-27T05:23:21.954Z,2.60
2019-06-27T05:28:15.264Z,2.40
2019-06-27T05:33:08.614Z,2.57
2019-06-27T05:38:01.955Z,2.57
2019-06-27T05:42:55.350Z,2.40
2019-06-27T05:47:48.666Z,2.50
2019-06-27T05:52:42.152Z,2.33
2019-06-27T05:57:35.477Z,2.43
2019-06-27T06:02:28.955Z,2.57
2019-06-27T06:07:22.275Z,2.30
2019-06-27T06:12:15.650Z,2.27
2019-06-27T06:17:09.019Z,2.27
2019-06-27T06:22:02.770Z,2.97
2019-06-27T06:26:56.090Z,3.00
2019-06-27T06:31:49.681Z,2.40
2019-06-27T06:36:42.771Z,2.47
2019-06-27T06:41:36.107Z,2.30
2019-06-27T06:46:29.421Z,2.63
2019-06-27T06:51:22.765Z,2.87
2019-06-27T06:56:16.092Z,2.53
2019-06-27T07:01:09.474Z,2.63
2019-06-27T07:06:03.483Z,2.27
2019-06-27T07:10:56.800Z,2.43
2019-06-27T07:15:50.092Z,2.40
2019-06-27T07:20:43.671Z,2.27
2019-06-27T07:25:37.311Z,2.60
2019-06-27T07:30:30.654Z,2.50
2019-06-27T07:35:23.993Z,2.50
2019-06-27T07:40:17.334Z,2.20
2019-06-27T07:45:10.692Z,2.50
2019-06-27T07:50:04.697Z,2.63
2019-06-27T07:54:58.013Z,2.53
2019-06-27T07:59:51.599Z,2.80
2019-06-27T08:04:44.851Z,3.03
2019-06-27T08:09:38.222Z,3.10
2019-06-27T08:14:31.650Z,2.77
2019-06-27T08:19:25.005Z,3.00
2019-06-27T08:24:18.647Z,2.77
2019-06-27T08:29:14.339Z,3.30
2019-06-27T08:34:07.658Z,2.80
2019-06-27T08:39:01.024Z,2.73
2019-06-27T08:43:54.357Z,3.00
2019-06-27T08:48:47.731Z,2.77
2019-06-27T08:53:41.076Z,2.90
2019-06-27T08:58:34.467Z,3.30
2019-06-27T09:03:27.775Z,2.83
2019-06-27T09:08:21.339Z,2.73
2019-06-27T09:13:14.663Z,2.83
2019-06-27T09:18:08.281Z,3.17
2019-06-27T09:23:01.595Z,3.53
2019-06-27T09:27:55.436Z,3.17
2019-06-27T09:32:48.750Z,2.87
2019-06-27T09:37:42.113Z,3.07
2019-06-27T09:42:35.437Z,3.17
2019-06-27T09:47:28.953Z,2.90
2019-06-27T09:52:22.371Z,2.70
2019-06-27T09:57:15.681Z,2.47
2019-06-27T10:02:08.998Z,3.07
2019-06-27T10:07:02.834Z,3.20
2019-06-27T10:11:56.155Z,2.90
2019-06-27T10:16:49.525Z,2.63
2019-06-27T10:21:42.831Z,2.90
2019-06-27T10:26:36.325Z,2.53
2019-06-27T10:31:29.764Z,2.73
2019-06-27T10:36:23.180Z,2.67
2019-06-27T10:41:16.520Z,2.47
2019-06-27T10:46:10.162Z,2.37
2019-06-27T10:51:03.482Z,2.40
2019-06-27T10:55:56.932Z,2.93
2019-06-27T11:00:50.269Z,2.53
2019-06-27T11:05:44.050Z,2.30
2019-06-27T11:10:37.373Z,2.20
2019-06-27T11:15:30.791Z,2.33
2019-06-27T11:20:24.151Z,2.07
2019-06-27T11:25:17.485Z,2.20
2019-06-27T11:30:10.799Z,1.93
2019-06-27T11:35:04.372Z,1.87
2019-06-27T11:39:57.694Z,2.30
2019-06-27T11:44:51.254Z,1.73
2019-06-27T11:49:44.599Z,1.67
2019-06-27T11:54:37.959Z,1.93
2019-06-27T11:59:31.292Z,1.97
2019-06-27T12:04:24.631Z,1.70
2019-06-27T12:09:17.948Z,1.60
2019-06-27T12:14:11.408Z,1.73
2019-06-27T12:19:04.706Z,1.77
2019-06-27T12:23:58.059Z,1.87
2019-06-27T12:28:51.372Z,1.87
2019-06-27T12:33:44.746Z,1.80
2019-06-27T12:38:38.117Z,1.90
2019-06-27T12:43:31.470Z,2.00
2019-06-27T12:48:24.792Z,2.10
2019-06-27T12:53:18.161Z,2.43
2019-06-27T12:58:11.480Z,2.17
2019-06-27T13:03:04.851Z,2.03
2019-06-27T13:07:58.186Z,1.97
2019-06-27T13:12:51.633Z,2.00
2019-06-27T13:17:44.951Z,2.13
2019-06-27T13:22:38.386Z,2.83
2019-06-27T13:27:31.700Z,2.57
2019-06-27T13:32:25.566Z,2.00
2019-06-27T13:37:18.397Z,2.33
2019-06-27T13:42:11.908Z,2.60
2019-06-27T13:47:05.232Z,2.50
2019-06-27T13:51:58.571Z,2.63
2019-06-27T13:56:51.890Z,3.10
2019-06-27T14:01:45.270Z,2.90
2019-06-27T14:06:41.277Z,2.97
2019-06-27T14:11:32.066Z,3.20
2019-06-27T14:16:25.385Z,3.20
2019-06-27T14:21:18.833Z,3.03
2019-06-27T14:26:12.159Z,3.37
2019-06-27T14:31:05.530Z,3.53
2019-06-27T14:35:58.856Z,3.20
2019-06-27T14:40:52.230Z,3.10
2019-06-27T14:45:45.646Z,3.70
2019-06-27T14:50:39.148Z,3.17
2019-06-27T14:55:32.452Z,3.23
2019-06-27T15:00:26.064Z,3.07
2019-06-27T15:05:31.756Z,3.33
2019-06-27T15:10:12.836Z,3.43
2019-06-27T15:15:06.099Z,3.67
2019-06-27T15:19:59.616Z,2.93
2019-06-27T15:24:52.815Z,3.00
2019-06-27T15:29:46.280Z,3.20
2019-06-27T15:34:39.603Z,3.33
2019-06-27T15:39:32.960Z,3.20
2019-06-27T15:44:26.276Z,3.20
2019-06-27T15:49:19.801Z,3.23
2019-06-27T15:54:13.152Z,3.73
2019-06-27T15:59:06.639Z,3.53
2019-06-27T16:04:00.001Z,4.23
2019-06-27T16:08:53.444Z,3.87
2019-06-27T16:13:46.769Z,3.30
2019-06-27T16:18:41.074Z,3.07
2019-06-27T16:23:33.427Z,3.53
2019-06-27T16:28:27.368Z,3.60
2019-06-27T16:33:20.169Z,3.73
2019-06-27T16:38:13.569Z,3.37
2019-06-27T16:43:06.894Z,3.37
2019-06-27T16:48:00.445Z,3.27
2019-06-27T16:52:53.820Z,3.50
2019-06-27T16:57:47.264Z,4.17
2019-06-27T17:02:40.636Z,3.57
2019-06-27T17:07:34.075Z,3.50
2019-06-27T17:12:27.400Z,3.67
2019-06-27T17:17:23.633Z,3.50
2019-06-27T17:22:16.975Z,3.47
2019-06-27T17:27:10.327Z,3.80
2019-06-27T17:32:06.367Z,3.40
2019-06-27T17:36:58.274Z,3.67
2019-06-27T17:41:50.359Z,4.10
2019-06-27T17:46:46.438Z,3.47
2019-06-27T17:51:37.032Z,3.97
2019-06-27T17:56:30.500Z,3.80
2019-06-27T18:01:23.825Z,3.83
2019-06-27T18:06:17.167Z,3.50
2019-06-27T18:11:10.477Z,3.50
2019-06-27T18:16:03.910Z,3.60
2019-06-27T18:20:57.235Z,3.13
2019-06-27T18:25:50.612Z,3.33
2019-06-27T18:30:43.946Z,3.70
2019-06-27T18:35:37.378Z,3.07
2019-06-27T18:40:30.708Z,3.53
2019-06-27T18:45:24.148Z,2.77
2019-06-27T18:50:17.475Z,3.30
2019-06-27T18:55:10.929Z,2.47
2019-06-27T19:00:05.052Z,2.80
2019-06-27T19:04:58.412Z,3.13
2019-06-27T19:09:51.736Z,2.80
2019-06-27T19:14:45.206Z,2.80
2019-06-27T19:19:38.791Z,3.10
2019-06-27T19:24:48.086Z,2.50
2019-06-27T19:29:41.419Z,3.17
2019-06-27T19:34:34.932Z,2.90
2019-06-27T19:39:28.257Z,2.90
2019-06-27T19:44:21.817Z,2.77
2019-06-27T19:49:15.144Z,2.67
2019-06-27T19:54:08.546Z,3.70
2019-06-27T19:59:01.887Z,2.93
2019-06-27T20:03:55.318Z,2.70
2019-06-27T20:08:48.641Z,3.40
2019-06-27T20:13:42.106Z,3.57
2019-06-27T20:18:35.467Z,3.40
2019-06-27T20:23:28.828Z,3.20
2019-06-27T20:28:22.204Z,3.27
2019-06-27T20:33:15.596Z,3.20
2019-06-27T20:38:08.909Z,2.83
2019-06-27T20:43:02.349Z,2.97
2019-06-27T20:47:55.704Z,3.17
2019-06-27T20:52:49.042Z,2.80
2019-06-27T20:57:42.343Z,2.87
2019-06-27T21:02:35.733Z,3.40
2019-06-27T21:07:29.383Z,3.40
2019-06-27T21:12:22.504Z,3.17
2019-06-27T21:17:15.835Z,4.00
2019-06-27T21:22:09.406Z,3.20
2019-06-27T21:27:03.366Z,3.73
2019-06-27T21:31:57.077Z,3.30
2019-06-27T21:36:50.402Z,3.70
2019-06-27T21:41:43.740Z,3.47
2019-06-27T21:46:37.093Z,3.27
2019-06-27T21:51:30.459Z,3.47
2019-06-27T21:56:23.782Z,3.30
2019-06-27T22:01:17.235Z,4.23
2019-06-27T22:06:10.554Z,4.50
2019-06-27T22:11:04.128Z,3.70
2019-06-27T22:15:57.475Z,4.43
2019-06-27T22:20:50.835Z,4.10
2019-06-27T22:25:44.164Z,3.80
2019-06-27T22:30:37.601Z,4.90
2019-06-27T22:35:30.920Z,4.13
2019-06-27T22:40:42.223Z,4.60
2019-06-27T22:45:53.478Z,4.13
2019-06-27T22:51:02.269Z,4.40
2019-06-27T22:55:55.639Z,5.00
2019-06-27T23:00:48.986Z,5.07
2019-06-27T23:05:42.324Z,5.23
2019-06-27T23:10:35.756Z,5.13
2019-06-27T23:15:29.235Z,4.73
2019-06-27T23:20:22.659Z,4.50
2019-06-27T23:25:15.980Z,4.93
2019-06-27T23:30:09.339Z,5.00
2019-06-27T23:35:02.662Z,4.60
2019-06-27T23:40:09.591Z,4.60
2019-06-27T23:44:49.354Z,5.27
2019-06-27T23:49:42.808Z,5.40
2019-06-27T23:54:36.264Z,5.87
2019-06-27T23:59:29.595Z,4.83
